createdAt,value
2022-10-17T00:03:37.990Z,13.75
2022-10-17T00:09:09.711Z,13.68
2022-10-17T00:14:41.557Z,13.63
2022-10-17T00:20:13.362Z,13.58
2022-10-17T00:25:45.151Z,13.54
2022-10-17T00:31:16.643Z,13.49
2022-10-17T00:36:48.931Z,13.43
2022-10-17T00:42:20.653Z,13.38
2022-10-17T00:47:52.198Z,13.32
2022-10-17T00:53:24.184Z,13.26
2022-10-17T00:58:56.112Z,13.20
2022-10-17T01:15:34.007Z,13.08
2022-10-17T01:21:06.007Z,13.04
2022-10-17T01:26:38.202Z,12.99
2022-10-17T01:32:10.491Z,12.96
2022-10-17T01:37:42.588Z,12.93
2022-10-17T01:43:14.255Z,12.89
2022-10-17T01:48:46.303Z,12.85
2022-10-17T01:54:18.456Z,12.80
2022-10-17T01:59:50.181Z,12.76
2022-10-17T02:05:21.917Z,12.72
2022-10-17T02:10:53.795Z,12.68
2022-10-17T02:16:25.505Z,12.65
2022-10-17T02:21:57.442Z,12.62
2022-10-17T02:27:29.235Z,12.59
2022-10-17T02:33:00.948Z,12.55
2022-10-17T02:38:32.945Z,12.52
2022-10-17T02:44:05.297Z,12.47
2022-10-17T02:55:09.675Z,12.38
2022-10-17T03:00:41.478Z,12.33
2022-10-17T03:06:13.145Z,12.27
2022-10-17T03:11:45.106Z,12.21
2022-10-17T03:17:17.428Z,12.15
2022-10-17T03:22:49.454Z,12.09
2022-10-17T03:28:21.106Z,12.03
2022-10-17T03:33:53.074Z,11.94
2022-10-17T03:39:25.021Z,11.85
2022-10-17T03:44:57.666Z,11.77
2022-10-17T03:50:29.338Z,11.70
2022-10-17T03:56:00.946Z,11.63
2022-10-17T04:01:32.959Z,11.58
2022-10-17T04:07:04.448Z,11.53
2022-10-17T04:12:36.509Z,11.50
2022-10-17T04:18:08.410Z,11.47
2022-10-17T04:23:40.517Z,11.44
2022-10-17T04:29:12.688Z,11.41
2022-10-17T04:34:44.419Z,11.39
2022-10-17T04:40:16.987Z,11.36
2022-10-17T04:45:49.182Z,11.33
2022-10-17T04:51:23.315Z,11.30
2022-10-17T04:56:53.542Z,11.25
2022-10-17T05:02:25.948Z,11.20
2022-10-17T05:07:58.126Z,11.16
2022-10-17T05:13:30.357Z,11.12
2022-10-17T05:19:02.362Z,11.09
2022-10-17T05:35:39.187Z,11.04
2022-10-17T05:41:11.444Z,11.01
2022-10-17T05:46:43.352Z,11.01
2022-10-17T05:52:15.017Z,11.03
2022-10-17T05:57:47.135Z,11.05
2022-10-17T06:03:19.262Z,11.10
2022-10-17T06:08:51.301Z,11.21
2022-10-17T06:14:23.405Z,11.39
2022-10-17T06:19:55.325Z,11.59
2022-10-17T06:25:27.686Z,11.81
2022-10-17T06:31:00.022Z,12.08
2022-10-17T06:36:32.146Z,12.37
2022-10-17T06:42:04.548Z,12.69
2022-10-17T06:47:36.442Z,13.08
2022-10-17T06:53:08.625Z,13.53
2022-10-17T06:58:40.542Z,14.07
2022-10-17T07:04:12.316Z,14.67
2022-10-17T07:09:43.868Z,15.24
2022-10-17T07:15:15.755Z,15.78
2022-10-17T07:20:47.633Z,16.32
2022-10-17T07:31:49.396Z,17.27
2022-10-17T07:37:21.702Z,17.69
2022-10-17T07:42:54.031Z,18.13
2022-10-17T07:48:26.103Z,18.55
2022-10-17T07:53:57.799Z,18.93
2022-10-17T07:59:30.200Z,19.30
2022-10-17T08:05:01.982Z,19.66
2022-10-17T08:10:33.817Z,19.99
2022-10-17T08:16:06.087Z,20.31
2022-10-17T08:21:38.458Z,20.61
2022-10-17T08:27:10.722Z,20.95
2022-10-17T08:32:42.782Z,21.25
2022-10-17T08:38:15.257Z,21.51
2022-10-17T08:43:48.058Z,21.70
2022-10-17T08:49:20.000Z,21.85
2022-10-17T08:51:31.815Z,21.81
2022-10-17T08:57:03.826Z,21.99
2022-10-17T09:02:35.690Z,22.06
2022-10-17T09:08:07.283Z,22.09
2022-10-17T09:13:39.097Z,22.15
2022-10-17T09:19:10.921Z,22.22
2022-10-17T09:24:42.950Z,22.25
2022-10-17T09:35:44.616Z,22.16
2022-10-17T09:41:42.923Z,22.04
2022-10-17T09:46:48.319Z,21.93
2022-10-17T09:52:20.127Z,21.84
2022-10-17T09:57:51.711Z,21.81
2022-10-17T10:03:23.950Z,21.80
2022-10-17T10:08:55.963Z,21.79
2022-10-17T10:14:27.640Z,21.78
2022-10-17T10:19:59.761Z,21.80
2022-10-17T10:25:31.203Z,21.85
2022-10-17T10:31:02.532Z,21.87
2022-10-17T10:36:34.341Z,21.91
2022-10-17T10:42:05.930Z,21.99
2022-10-17T10:47:37.814Z,22.09
2022-10-17T10:53:09.675Z,22.19
2022-10-17T11:04:10.776Z,22.32
2022-10-17T11:09:42.683Z,22.32
2022-10-17T11:15:14.565Z,22.38
2022-10-17T11:20:46.371Z,22.44
2022-10-17T11:26:18.415Z,22.49
2022-10-17T11:31:49.742Z,22.54
2022-10-17T11:37:21.594Z,22.58
2022-10-17T11:42:53.591Z,22.58
2022-10-17T11:48:25.136Z,22.57
2022-10-17T11:53:56.911Z,22.62
2022-10-17T11:59:29.864Z,22.68
2022-10-17T12:05:00.651Z,22.69
2022-10-17T12:10:32.339Z,22.75
2022-10-17T12:16:04.017Z,22.89
2022-10-17T12:21:35.662Z,23.01
2022-10-17T12:27:07.426Z,23.14
2022-10-17T12:33:00.320Z,23.28
2022-10-17T12:38:10.900Z,23.40
2022-10-17T12:43:44.802Z,23.51
2022-10-17T12:49:15.289Z,23.62
2022-10-17T12:54:48.109Z,23.73
2022-10-17T13:00:18.623Z,23.84
2022-10-17T13:05:50.450Z,23.94
2022-10-17T13:16:53.684Z,24.10
2022-10-17T13:27:55.441Z,24.25
2022-10-17T13:33:27.109Z,24.34
2022-10-17T13:41:36.253Z,24.08
2022-10-17T13:46:50.925Z,24.28
2022-10-17T13:52:22.866Z,24.37
2022-10-17T14:03:24.004Z,24.43
2022-10-17T14:08:56.314Z,24.45
2022-10-17T14:14:27.945Z,24.46
2022-10-17T14:20:16.424Z,24.49
2022-10-17T14:25:32.054Z,24.56
2022-10-17T14:31:03.770Z,24.61
2022-10-17T14:36:35.786Z,24.65
2022-10-17T14:42:07.851Z,24.68
2022-10-17T14:47:43.701Z,24.68
2022-10-17T14:53:11.363Z,24.69
2022-10-17T14:58:42.929Z,24.67
2022-10-17T15:04:14.778Z,24.61
2022-10-17T15:09:46.742Z,24.52
2022-10-17T15:20:55.220Z,24.32
2022-10-17T15:26:20.406Z,24.19
2022-10-17T15:31:52.348Z,24.06
2022-10-17T15:37:24.136Z,23.92
2022-10-17T15:42:55.748Z,23.76
2022-10-17T15:48:27.667Z,23.58
2022-10-17T15:53:59.522Z,23.39
2022-10-17T15:59:31.520Z,23.20
2022-10-17T16:05:04.364Z,23.01
2022-10-17T16:10:35.953Z,22.81
2022-10-17T16:16:07.877Z,22.58
2022-10-17T16:27:09.412Z,22.12
2022-10-17T16:32:41.093Z,21.87
2022-10-17T16:43:44.027Z,21.35
2022-10-17T16:49:15.724Z,21.08
2022-10-17T16:54:47.668Z,20.81
2022-10-17T17:05:49.426Z,20.31
2022-10-17T17:11:21.296Z,20.11
2022-10-17T17:16:53.530Z,19.91
2022-10-17T17:22:25.472Z,19.72
2022-10-17T17:27:57.509Z,19.54
2022-10-17T17:33:29.237Z,19.36
2022-10-17T17:39:01.057Z,19.16
2022-10-17T17:44:32.656Z,18.97
2022-10-17T17:50:04.724Z,18.78
2022-10-17T17:55:36.946Z,18.61
2022-10-17T18:01:08.655Z,18.45
2022-10-17T18:06:40.536Z,18.30
2022-10-17T18:12:12.653Z,18.15
2022-10-17T18:17:44.853Z,18.02
2022-10-17T18:23:16.550Z,17.91
2022-10-17T18:28:48.598Z,17.82
2022-10-17T18:34:20.602Z,17.74
2022-10-17T18:39:52.336Z,17.65
2022-10-17T18:45:24.244Z,17.54
2022-10-17T18:50:55.805Z,17.41
2022-10-17T18:56:27.669Z,17.30
2022-10-17T19:01:59.829Z,17.19
2022-10-17T19:07:31.892Z,17.08
2022-10-17T19:13:04.095Z,16.98
2022-10-17T19:18:36.361Z,16.89
2022-10-17T19:24:08.529Z,16.80
2022-10-17T19:29:40.768Z,16.72
2022-10-17T19:35:12.834Z,16.62
2022-10-17T19:40:44.875Z,16.52
2022-10-17T19:46:16.465Z,16.42
2022-10-17T19:51:48.425Z,16.33
2022-10-17T20:02:50.112Z,16.13
2022-10-17T20:08:22.051Z,16.02
2022-10-17T20:13:53.834Z,15.92
2022-10-17T20:19:25.469Z,15.81
2022-10-17T20:24:57.287Z,15.70
2022-10-17T20:30:29.466Z,15.60
2022-10-17T20:36:01.238Z,15.51
2022-10-17T20:41:33.558Z,15.43
2022-10-17T20:47:11.897Z,15.36
2022-10-17T20:52:37.523Z,15.30
2022-10-17T20:58:09.625Z,15.23
2022-10-17T21:03:44.053Z,15.16
2022-10-17T21:09:12.893Z,15.09
2022-10-17T21:14:44.875Z,15.03
2022-10-17T21:20:16.681Z,14.97
2022-10-17T21:25:48.478Z,14.92
2022-10-17T21:31:20.061Z,14.87
2022-10-17T21:36:51.893Z,14.82
2022-10-17T21:42:23.558Z,14.77
2022-10-17T21:48:12.206Z,14.72
2022-10-17T21:53:27.077Z,14.64
2022-10-17T21:58:58.887Z,14.53
2022-10-17T22:04:30.757Z,14.46
2022-10-17T22:10:02.842Z,14.42
2022-10-17T22:15:35.258Z,14.36
2022-10-17T22:21:07.115Z,14.32
2022-10-17T22:26:38.982Z,14.28
2022-10-17T22:32:10.880Z,14.23
2022-10-17T22:37:42.696Z,14.18
2022-10-17T22:43:14.484Z,14.13
2022-10-17T22:48:46.128Z,14.07
2022-10-17T22:54:17.881Z,14.01
2022-10-17T22:59:49.722Z,13.95
2022-10-17T23:05:21.599Z,13.88
2022-10-17T23:10:53.220Z,13.81
2022-10-17T23:13:16.778Z,13.29
2022-10-17T23:18:48.510Z,13.47
2022-10-17T23:24:19.859Z,13.54
2022-10-17T23:29:51.356Z,13.56
2022-10-17T23:35:22.994Z,13.55
2022-10-17T23:40:55.097Z,13.53
2022-10-17T23:46:26.720Z,13.51
2022-10-17T23:51:58.584Z,13.49
2022-10-17T23:57:30.639Z,13.47
